Terminal Aerodrome Forecast
Issued by NWS Northern Indiana

Home | Current Version | Previous Version | Text Only | Print | Product List | Glossary On
Versions: 1 2 3 4 5 6 7 8 9 10 11 12 13 14 15 16
000
FTUS43 KIWX 011100
TAFFWA
TAF
KFWA 011134Z 0112/0212 20008KT P6SM VCSH BKN008 BKN045
      TEMPO 0112/0114 SCT008 BKN045
     FM011400 21012G20KT P6SM SCT015 BKN035
     FM011800 21015G24KT P6SM SCT040 BKN080
     FM012300 23012KT P6SM SCT040 BKN080
      TEMPO 0200/0204 3SM TSRA BR OVC020CB
     FM020400 21008KT 6SM -SHRA VCTS OVC030CB=

USA.gov is the U.S. government's official web portal to all federal, state and local government web resources and services.